M I D A S
Marine Information and Data Acquisition System
Tripno 1045 of the Zeeleeuw from 2006-03-07 09:15:18 to 2006-03-07 15:21:46
Back to CruiseResearch ActivitiesStationsMapUnderway DataData graphs

EquipmentUnitsComment
TimeDGPSUTC
LatitudeDGPSDM.mWGS84
LongitudeDGPSDM.mWGS84
HeadingGyrodeg 
SOGDGPSknotsSpeed over ground
COGDGPSdegCourse over ground
DepthEcho soundermeters200 kHz
Missing or incorrect values are displayed as -999
Navigation data collected by the RV Zeeleeuw from 2006-03-07 08:17:53 to 2006-03-07 15:35:08
Time Latitude Longitude Heading SOG COG Depth
2006-03-07 08:18:58 51°13.595 2°56.094 113.6 -999 225 8.2
2006-03-07 08:19:58 51°13.596 2°56.095 119.1 -999 113 7.6
2006-03-07 08:20:58 51°13.596 2°56.095 124.3 -999 276 7.5
2006-03-07 08:21:58 51°13.597 2°56.095 125.4 -999 263 7.4
2006-03-07 08:22:58 51°13.599 2°56.095 124.4 0.1 20 7.4
2006-03-07 08:23:58 51°13.598 2°56.095 124.5 -999 354 7.3
2006-03-07 08:24:58 51°13.599 2°56.095 124.5 -999 31 5.5
2006-03-07 08:25:58 51°13.6 2°56.096 124.3 -999 85 7.3
2006-03-07 08:26:58 51°13.599 2°56.095 124.1 -999 43 7.3
2006-03-07 08:27:58 51°13.602 2°56.096 124.1 -999 337 7.2
2006-03-07 08:28:58 51°13.6 2°56.094 124 -999 37 7.2
2006-03-07 08:29:58 51°13.601 2°56.095 124 -999 342 7.2
2006-03-07 08:30:58 51°13.6 2°56.095 123.9 -999 57 7.2
2006-03-07 08:31:58 51°13.599 2°56.094 123.8 -999 200 7.2
2006-03-07 08:32:58 51°13.6 2°56.094 123.9 -999 110 7.3
2006-03-07 08:33:58 51°13.6 2°56.094 124.2 -999 37 7.3
2006-03-07 08:34:58 51°13.599 2°56.095 124.1 -999 295 7.2
2006-03-07 08:35:57 51°13.598 2°56.095 124.1 -999 239 7.1
2006-03-07 08:36:58 51°13.599 2°56.095 124.2 -999 283 7.3
2006-03-07 08:37:58 51°13.599 2°56.096 124.3 -999 35 7.2
2006-03-07 08:38:58 51°13.6 2°56.095 124.3 -999 92 7.1
2006-03-07 08:39:58 51°13.6 2°56.095 124.3 -999 220 7.2
2006-03-07 08:40:58 51°13.6 2°56.094 124.3 -999 284 7.2
2006-03-07 08:41:58 51°13.6 2°56.093 124.3 -999 312 7.1
2006-03-07 08:42:58 51°13.599 2°56.094 124.2 -999 9 7.1
2006-03-07 08:43:58 51°13.598 2°56.094 124.1 -999 218 7
2006-03-07 08:44:58 51°13.598 2°56.094 124 -999 143 7.1
2006-03-07 08:45:58 51°13.598 2°56.094 124 -999 325 7
2006-03-07 08:46:58 51°13.599 2°56.094 124.1 -999 351 7.1
2006-03-07 08:47:58 51°13.599 2°56.094 124.1 -999 233 7.1
2006-03-07 08:48:58 51°13.599 2°56.095 124.1 -999 215 7
2006-03-07 08:49:58 51°13.597 2°56.095 124.2 -999 81 7
2006-03-07 08:50:58 51°13.597 2°56.094 124.3 -999 16 7
2006-03-07 08:51:58 51°13.597 2°56.094 124.2 -999 24 7
2006-03-07 08:52:58 51°13.598 2°56.094 124.2 -999 116 7
2006-03-07 08:53:58 51°13.598 2°56.094 124.2 -999 309 7
2006-03-07 08:54:58 51°13.597 2°56.094 124.2 -999 334 7
2006-03-07 08:55:58 51°13.596 2°56.094 124.2 -999 156 6.9
2006-03-07 08:56:58 51°13.597 2°56.095 124.2 -999 299 6.9
2006-03-07 08:57:58 51°13.597 2°56.095 124.3 -999 252 6.9
2006-03-07 08:58:58 51°13.598 2°56.095 124.4 -999 181 6.9
2006-03-07 08:59:58 51°13.598 2°56.095 124.5 -999 59 7
2006-03-07 09:00:58 51°13.597 2°56.095 124.6 -999 124 6.9
2006-03-07 09:01:58 51°13.597 2°56.093 124.6 -999 34 6.9
2006-03-07 09:02:58 51°13.597 2°56.094 124.7 -999 284 6.8
2006-03-07 09:03:58 51°13.597 2°56.094 124.7 -999 58 6.8
2006-03-07 09:04:58 51°13.597 2°56.094 124.8 -999 179 6.8
2006-03-07 09:05:58 51°13.596 2°56.094 120.5 0.1 191 7
2006-03-07 09:06:58 51°13.597 2°56.087 109.8 0.9 289 8.7
2006-03-07 09:07:59 51°13.611 2°56.02 109.8 3.2 287 -999
2006-03-07 09:08:59 51°13.632 2°55.94 118.7 3.4 296 -999
2006-03-07 09:09:59 51°13.657 2°55.855 118 3.6 295 -999
2006-03-07 09:10:59 51°13.684 2°55.765 118.3 4.1 296 -999
2006-03-07 09:11:58 51°13.7 2°55.72 93.4 1 68 10
2006-03-07 09:12:58 51°13.729 2°55.754 25.3 2.2 18 10.1
2006-03-07 09:13:59 51°13.718 2°55.749 1.2 0.3 218 -999
2006-03-07 09:14:58 51°13.788 2°55.68 332.2 8.5 326 9.8
2006-03-07 09:15:58 51°13.937 2°55.561 341.6 9.9 335 10
2006-03-07 09:16:58 51°14.085 2°55.456 341.6 9.7 335 10.1
2006-03-07 09:17:58 51°14.23 2°55.309 328.2 11.2 321 9.9
2006-03-07 09:18:58 51°14.363 2°55.077 317 12.3 311 9.9
2006-03-07 09:19:58 51°14.511 2°54.891 339.1 8.7 329 9.7
2006-03-07 09:20:58 51°14.599 2°54.854 11.9 4.1 357 9.5
2006-03-07 09:21:58 51°14.669 2°54.864 15.3 6.4 3 9.2
2006-03-07 09:22:58 51°14.821 2°54.8 342.9 10.9 333 9
2006-03-07 09:23:58 51°14.985 2°54.614 330.9 12.5 324 8.7
2006-03-07 09:24:58 51°15.159 2°54.43 333.5 12.9 325 8.5
2006-03-07 09:25:58 51°15.338 2°54.241 335.3 12.8 326 9.1
2006-03-07 09:26:58 51°15.513 2°54.047 335.2 12.7 325 9.9
2006-03-07 09:27:58 51°15.69 2°53.849 335.1 13 326 10.3
2006-03-07 09:28:58 51°15.87 2°53.652 335.2 13.2 326 10.9
2006-03-07 09:29:58 51°16.055 2°53.458 335.3 13.1 327 11.3
2006-03-07 09:30:58 51°16.241 2°53.275 336.4 13.2 328 11.6
2006-03-07 09:31:58 51°16.424 2°53.086 335 13 326 11.6
2006-03-07 09:32:58 51°16.608 2°52.899 336.9 13.1 328 11.3
2006-03-07 09:33:58 51°16.794 2°52.715 336.5 13.1 328 9.5
2006-03-07 09:34:58 51°16.99 2°52.568 349.8 13 342 9.7
2006-03-07 09:35:58 51°17.203 2°52.502 359.8 13.1 351 9.6
2006-03-07 09:36:58 51°17.419 2°52.445 358.5 13.2 350 9.9
2006-03-07 09:37:58 51°17.634 2°52.412 8.7 12.9 -999 10.2
2006-03-07 09:38:58 51°17.847 2°52.445 17.4 13 8 10.2
2006-03-07 09:39:58 51°18.05 2°52.544 29.8 12.8 22 10.3
2006-03-07 09:40:58 51°18.2 2°52.765 64.1 12.5 63 10.6
2006-03-07 09:41:58 51°18.271 2°53.076 74.9 12.5 67 10.7
2006-03-07 09:42:58 51°18.356 2°53.383 72.5 12.6 66 10.7
2006-03-07 09:43:58 51°18.446 2°53.687 71.1 12.6 67 10.6
2006-03-07 09:44:58 51°18.528 2°53.998 74.7 12.6 69 10.6
2006-03-07 09:45:58 51°18.609 2°54.307 73.5 12.7 67 10.7
2006-03-07 09:46:58 51°18.688 2°54.618 75.5 12.6 68 10.6
2006-03-07 09:47:58 51°18.765 2°54.93 73.3 12.7 67 10.4
2006-03-07 09:48:58 51°18.842 2°55.244 74.9 12.6 69 10.4
2006-03-07 09:49:58 51°18.92 2°55.554 74.3 12.6 69 10.4
2006-03-07 09:50:58 51°19.004 2°55.863 72.7 12.8 67 10.1
2006-03-07 09:51:58 51°19.089 2°56.172 73.3 12.8 66 9.9
2006-03-07 09:52:58 51°19.175 2°56.479 72.4 12.5 67 10
2006-03-07 09:53:58 51°19.256 2°56.784 71.1 12.4 66 9.5
2006-03-07 09:54:58 51°19.339 2°57.088 72.4 12.5 67 9.4
2006-03-07 09:55:58 51°19.422 2°57.395 72.2 12.6 65 9.3
2006-03-07 09:56:58 51°19.505 2°57.707 73.1 12.8 66 9.3
2006-03-07 09:57:58 51°19.588 2°58.017 74.9 12.7 67 8.9
2006-03-07 09:58:58 51°19.678 2°58.321 72.9 12.7 66 8.9
2006-03-07 09:59:58 51°19.754 2°58.632 76.7 12.4 70 9
2006-03-07 10:00:58 51°19.825 2°58.942 75.5 12.3 71 9
2006-03-07 10:01:58 51°19.895 2°59.25 76 12.5 72 9.1
2006-03-07 10:02:58 51°19.962 2°59.559 78.9 12.3 74 9.1
2006-03-07 10:03:58 51°20.032 2°59.86 67.5 12.2 62 8.9
2006-03-07 10:04:58 51°20.116 3°0.155 71.5 12.2 67 8.9
2006-03-07 10:05:58 51°20.198 3°0.449 71.9 12.1 67 9
2006-03-07 10:06:58 51°20.28 3°0.743 70.3 12 66 8.9
2006-03-07 10:07:58 51°20.362 3°1.037 70.5 12.1 64 8.8
2006-03-07 10:08:58 51°20.446 3°1.329 70.1 12 65 8.8
2006-03-07 10:09:58 51°20.531 3°1.62 70.6 12 64 8.9
2006-03-07 10:10:58 51°20.617 3°1.907 69.6 12 65 9.1
2006-03-07 10:11:58 51°20.705 3°2.196 68.7 12.1 64 9.2
2006-03-07 10:12:58 51°20.794 3°2.484 68.3 12.2 62 9.2
2006-03-07 10:13:58 51°20.881 3°2.775 69.8 12.1 64 9.3
2006-03-07 10:14:58 51°20.968 3°3.066 69.3 12.1 65 9.4
2006-03-07 10:15:58 51°21.055 3°3.358 69.3 12.2 65 9.7
2006-03-07 10:16:58 51°21.141 3°3.651 68.8 12.3 63 9.7
2006-03-07 10:17:58 51°21.22 3°3.948 71.7 12.1 66 9.8
2006-03-07 10:18:58 51°21.299 3°4.245 70.1 12.1 66 9.8
2006-03-07 10:19:58 51°21.378 3°4.541 71.5 12.1 65 9.9
2006-03-07 10:20:58 51°21.459 3°4.836 70.8 12.1 65 10
2006-03-07 10:21:58 51°21.533 3°5.133 72.9 12.1 70 10.2
2006-03-07 10:22:58 51°21.604 3°5.43 73.5 11.9 69 10.2
2006-03-07 10:23:58 51°21.675 3°5.724 72.3 11.9 68 10.4
2006-03-07 10:24:58 51°21.748 3°6.015 73.6 11.9 68 10.4
2006-03-07 10:25:58 51°21.823 3°6.306 73.4 11.9 69 10.7
2006-03-07 10:26:58 51°21.889 3°6.601 75.6 11.7 72 10.9
2006-03-07 10:27:58 51°21.948 3°6.9 77.9 11.7 72 10.9
2006-03-07 10:28:58 51°21.996 3°7.2 81 11.6 74 11.1
2006-03-07 10:29:58 51°22.037 3°7.504 83.4 11.6 76 11.3
2006-03-07 10:30:58 51°22.07 3°7.81 83.3 11.5 80 11.2
2006-03-07 10:31:58 51°22.102 3°8.117 82.3 11.8 82 11.3
2006-03-07 10:32:58 51°22.135 3°8.422 82.8 11.6 81 11.3
2006-03-07 10:33:58 51°22.163 3°8.73 87.1 11.8 89 11.5
2006-03-07 10:34:58 51°22.175 3°9.038 87.1 11.6 85 11.7
2006-03-07 10:35:58 51°22.188 3°9.346 88.1 11.7 83 11.9
2006-03-07 10:36:58 51°22.2 3°9.653 87.8 11.5 86 12.4
2006-03-07 10:37:58 51°22.215 3°9.957 86.6 11.3 86 12.9
2006-03-07 10:38:58 51°22.231 3°10.261 87.7 11.5 82 13.6
2006-03-07 10:39:58 51°22.293 3°10.545 70.4 11.5 64 17.4
2006-03-07 10:40:58 51°22.376 3°10.823 72.7 11.5 67 15.3
2006-03-07 10:41:58 51°22.431 3°11.108 86.3 11.2 84 14.8
2006-03-07 10:42:58 51°22.446 3°11.406 90 11.3 91 14.8
2006-03-07 10:43:58 51°22.454 3°11.706 91.2 11.4 90 14.3
2006-03-07 10:44:58 51°22.478 3°12.005 85.2 11.5 79 13.8
2006-03-07 10:45:58 51°22.517 3°12.302 82.9 11.3 76 13.4
2006-03-07 10:46:58 51°22.553 3°12.598 86.3 11.4 81 12.8
2006-03-07 10:47:58 51°22.584 3°12.874 84.6 8.1 79 12.2
2006-03-07 10:48:58 51°22.605 3°13.002 79.9 3.2 64 12.2
2006-03-07 10:49:58 51°22.619 3°13.085 96.2 2.7 87 11.9
2006-03-07 10:50:58 51°22.617 3°13.094 101.8 0.2 226 12
2006-03-07 10:51:58 51°22.617 3°13.085 101.5 0.4 262 12
2006-03-07 10:52:58 51°22.618 3°13.071 102.3 0.6 274 11.9
2006-03-07 10:53:58 51°22.619 3°13.053 102.8 0.8 270 12
2006-03-07 10:54:59 51°22.622 3°13.029 103.6 0.9 285 12
2006-03-07 10:55:58 51°22.624 3°13.002 104.5 1.1 279 12
2006-03-07 10:56:59 51°22.627 3°12.973 104.8 1.1 277 12
2006-03-07 10:57:58 51°22.63 3°12.943 106.1 1.2 278 12.1
2006-03-07 10:58:59 51°22.632 3°12.911 105.4 1.2 279 12.1
2006-03-07 10:59:58 51°22.634 3°12.88 106.6 1.2 277 12.2
2006-03-07 11:00:58 51°22.636 3°12.847 107.5 1.2 279 12.2
2006-03-07 11:01:58 51°22.639 3°12.815 108.8 1.3 278 12.3
2006-03-07 11:02:58 51°22.641 3°12.781 111.5 1.3 275 12.5
2006-03-07 11:03:58 51°22.642 3°12.746 115.5 1.4 272 12.4
2006-03-07 11:04:58 51°22.644 3°12.711 117.5 1.3 277 12.5
2006-03-07 11:05:58 51°22.645 3°12.677 115.8 1.2 275 12.5
2006-03-07 11:06:58 51°22.647 3°12.642 117.5 1.4 274 12.5
2006-03-07 11:07:58 51°22.648 3°12.608 118.9 1.4 271 12.6
2006-03-07 11:08:58 51°22.65 3°12.576 115.4 1.1 270 12.6
2006-03-07 11:09:58 51°22.649 3°12.551 105.2 0.9 269 12.7
2006-03-07 11:10:59 51°22.648 3°12.532 89.2 0.6 275 12.6
2006-03-07 11:11:58 51°22.652 3°12.515 75.2 0.8 290 12.6
2006-03-07 11:12:58 51°22.656 3°12.494 76 0.8 279 12.7
2006-03-07 11:13:58 51°22.695 3°12.496 21.6 4.8 359 12.6
2006-03-07 11:14:58 51°22.777 3°12.34 307.6 10.5 297 12.3
2006-03-07 11:15:58 51°22.875 3°12.03 299.7 13.8 293 11.7
2006-03-07 11:16:58 51°22.914 3°11.658 285.2 14.2 279 11.7
2006-03-07 11:17:58 51°22.955 3°11.286 285.8 14.1 279 11.8
2006-03-07 11:18:58 51°23.008 3°10.927 290.8 13.9 282 11.8
2006-03-07 11:19:58 51°23.061 3°10.566 291.7 14 284 11.8
2006-03-07 11:20:58 51°23.131 3°10.214 297.3 13.9 290 11.8
2006-03-07 11:21:58 51°23.211 3°9.864 298 14 290 12.5
2006-03-07 11:22:58 51°23.296 3°9.514 302.4 14 293 13
2006-03-07 11:23:58 51°23.39 3°9.174 300.6 13.9 292 14.2
2006-03-07 11:24:58 51°23.487 3°8.835 303.8 14.1 296 17.1
2006-03-07 11:25:58 51°23.589 3°8.498 303.8 14.1 296 16.7
2006-03-07 11:26:58 51°23.689 3°8.16 302.2 14.1 295 17
2006-03-07 11:27:58 51°23.792 3°7.827 303.8 14 297 16.9
2006-03-07 11:28:58 51°23.889 3°7.488 299.7 14 293 17.2
2006-03-07 11:29:58 51°23.97 3°7.136 295 14.2 289 17.3
2006-03-07 11:30:58 51°24.048 3°6.78 295.4 14.1 288 17.2
2006-03-07 11:31:58 51°24.117 3°6.421 291.9 14.2 286 16.8
2006-03-07 11:32:58 51°24.158 3°6.051 281.7 14.1 277 16
2006-03-07 11:33:58 51°24.209 3°5.685 297.7 14.2 291 15.8
2006-03-07 11:34:58 51°24.31 3°5.346 302.8 14.2 295 15
2006-03-07 11:35:58 51°24.412 3°5.009 304.1 13.9 297 14.5
2006-03-07 11:36:58 51°24.516 3°4.679 304 13.9 297 14.1
2006-03-07 11:37:58 51°24.618 3°4.349 303.9 13.8 297 13.7
2006-03-07 11:38:58 51°24.694 3°4.004 287.8 13.7 281 14.3
2006-03-07 11:39:59 51°24.713 3°3.629 277.4 13.9 273 15.1
2006-03-07 11:40:58 51°24.726 3°3.266 278.3 13.8 274 16.3
2006-03-07 11:41:58 51°24.754 3°2.901 280.9 13.9 276 17.1
2006-03-07 11:42:59 51°24.779 3°2.53 281 13.8 276 16.8
2006-03-07 11:43:58 51°24.798 3°2.17 278.4 13.8 274 16.6
2006-03-07 11:44:58 51°24.816 3°1.801 278.4 13.9 274 16.6
2006-03-07 11:45:58 51°24.832 3°1.431 279.3 13.9 275 16.5
2006-03-07 11:46:58 51°24.849 3°1.064 279.8 13.7 274 16.5
2006-03-07 11:47:58 51°24.864 3°0.702 278.5 13.7 273 16.5
2006-03-07 11:48:58 51°24.88 3°0.337 279.8 13.7 275 16.4
2006-03-07 11:49:58 51°24.898 2°59.972 278.8 13.8 275 16.8
2006-03-07 11:50:58 51°24.916 2°59.61 278.7 13.5 274 16.7
2006-03-07 11:51:58 51°24.931 2°59.248 278.7 13.7 273 17.4
2006-03-07 11:52:58 51°24.948 2°58.886 280 13.6 275 17.9
2006-03-07 11:53:58 51°24.962 2°58.527 279.9 13.5 273 18.4
2006-03-07 11:54:58 51°24.976 2°58.17 279.4 13.4 273 19
2006-03-07 11:55:58 51°24.991 2°57.816 283.8 13.3 276 19.9
2006-03-07 11:56:58 51°25.023 2°57.465 285.6 13.3 278 21.5
2006-03-07 11:57:58 51°25.053 2°57.112 285.1 13.4 279 23
2006-03-07 11:58:58 51°25.082 2°56.757 284.3 13.6 275 23.5
2006-03-07 11:59:58 51°25.11 2°56.402 284.6 13.4 278 23.8
2006-03-07 12:00:58 51°25.14 2°56.044 284.2 13.6 277 21.7
2006-03-07 12:01:58 51°25.169 2°55.687 283.7 13.6 277 18.5
2006-03-07 12:02:58 51°25.196 2°55.33 284.5 13.6 278 16.9
2006-03-07 12:03:58 51°25.229 2°54.976 284 13.3 278 17.6
2006-03-07 12:04:59 51°25.259 2°54.616 284.1 13.5 277 18.7
2006-03-07 12:05:58 51°25.29 2°54.269 284.5 13.3 278 20.2
2006-03-07 12:06:58 51°25.322 2°53.918 284 13.3 279 17.2
2006-03-07 12:07:58 51°25.356 2°53.569 284.5 13.4 280 20.5
2006-03-07 12:08:58 51°25.394 2°53.218 285.6 13.4 280 22.3
2006-03-07 12:09:58 51°25.434 2°52.864 286.6 13.5 280 22.5
2006-03-07 12:10:58 51°25.482 2°52.513 288.3 13.5 283 23
2006-03-07 12:11:59 51°25.531 2°52.154 289.7 13.5 284 25.5
2006-03-07 12:12:58 51°25.581 2°51.812 288.2 13.3 283 27.9
2006-03-07 12:13:58 51°25.627 2°51.465 288.9 13.5 282 22.4
2006-03-07 12:14:58 51°25.678 2°51.114 288.8 13.5 283 22.4
2006-03-07 12:15:58 51°25.722 2°50.762 285.9 13.5 281 22.3
2006-03-07 12:16:59 51°25.761 2°50.401 286.4 13.6 280 22.2
2006-03-07 12:17:58 51°25.803 2°50.052 286.7 13.5 281 21.8
2006-03-07 12:18:58 51°25.848 2°49.699 286.6 13.6 281 22.2
2006-03-07 12:19:58 51°25.897 2°49.349 288.1 13.4 283 22.4
2006-03-07 12:20:58 51°25.946 2°49.001 288.5 12.1 282 22.9
2006-03-07 12:21:58 51°25.971 2°48.775 282.9 7.1 276 23
2006-03-07 12:22:58 51°25.968 2°48.632 266.7 4.3 262 23.1
2006-03-07 12:23:59 51°25.962 2°48.578 261.3 0.5 265 23.3
2006-03-07 12:24:59 51°25.962 2°48.562 277.7 0.7 261 -999
2006-03-07 12:25:59 51°25.96 2°48.543 283.8 0.8 277 23
2006-03-07 12:26:58 51°25.961 2°48.522 286.6 0.8 287 23.2
2006-03-07 12:27:59 51°25.96 2°48.5 286.3 0.9 278 22.8
2006-03-07 12:28:58 51°25.96 2°48.476 282.9 0.9 268 22.8
2006-03-07 12:29:58 51°25.96 2°48.451 277.8 1 268 22.8
2006-03-07 12:30:58 51°25.961 2°48.427 272 0.9 261 22.6
2006-03-07 12:31:58 51°25.948 2°48.362 242.3 5.4 239 22.6
2006-03-07 12:32:59 51°25.836 2°48.174 225 12.1 225 22.8
2006-03-07 12:33:58 51°25.674 2°47.937 220.5 13.8 219 22.6
2006-03-07 12:34:58 51°25.496 2°47.705 219.9 13.7 220 25.1
2006-03-07 12:35:58 51°25.319 2°47.473 218 14 219 25.4
2006-03-07 12:36:59 51°25.14 2°47.235 220.9 14.1 221 24.1
2006-03-07 12:37:58 51°24.967 2°47.006 219.1 13.5 220 24.9
2006-03-07 12:38:59 51°24.788 2°46.767 220.2 13.9 221 26.1
2006-03-07 12:39:59 51°24.612 2°46.531 220.4 13.8 221 25.1
2006-03-07 12:40:58 51°24.438 2°46.3 219.1 13.8 222 28.1
2006-03-07 12:41:59 51°24.273 2°46.037 226.2 13.9 225 25.2
2006-03-07 12:42:58 51°24.114 2°45.778 225.6 13.9 228 25.9
2006-03-07 12:43:59 51°23.949 2°45.51 227.2 13.9 226 26.8
2006-03-07 12:44:58 51°23.794 2°45.243 228.1 14.1 228 25.4
2006-03-07 12:45:59 51°23.635 2°44.967 229.4 13.6 228 26.6
2006-03-07 12:46:58 51°23.48 2°44.702 227.7 13.9 226 26.5
2006-03-07 12:47:58 51°23.327 2°44.426 230.6 13.8 229 26.5
2006-03-07 12:48:59 51°23.175 2°44.142 231.1 13.7 230 24.1
2006-03-07 12:49:59 51°23.034 2°43.848 234.8 14 231 25.4
2006-03-07 12:50:59 51°22.893 2°43.554 232.8 13.9 230 25.4
2006-03-07 12:51:58 51°22.754 2°43.263 234.2 14.1 234 24.2
2006-03-07 12:52:59 51°22.611 2°42.96 234.3 14 233 25
2006-03-07 12:53:58 51°22.456 2°42.694 223.7 13.7 222 23.9
2006-03-07 12:54:58 51°22.274 2°42.471 218 13.6 216 25.4
2006-03-07 12:55:58 51°22.084 2°42.271 213.8 13.9 212 26
2006-03-07 12:56:59 51°21.889 2°42.068 212.4 13.8 212 26.1
2006-03-07 12:57:58 51°21.699 2°41.88 212 13.3 211 24.9
2006-03-07 12:58:58 51°21.504 2°41.688 211.3 13.7 212 22.9
2006-03-07 12:59:58 51°21.312 2°41.494 212.3 13.4 211 24.4
2006-03-07 13:00:58 51°21.12 2°41.302 211.5 13.4 212 24.9
2006-03-07 13:01:59 51°20.926 2°41.107 212.3 13.4 213 24.4
2006-03-07 13:02:58 51°20.738 2°40.917 211.6 13.7 211 25.2
2006-03-07 13:03:58 51°20.547 2°40.721 211.8 13.8 213 26.8
2006-03-07 13:04:58 51°20.357 2°40.53 212.9 13.3 213 27.8
2006-03-07 13:05:59 51°20.166 2°40.335 211.4 13.3 211 27.5
2006-03-07 13:06:59 51°19.977 2°40.148 211.3 13.4 212 27.7
2006-03-07 13:07:59 51°19.779 2°39.984 203.4 13.3 205 28.4
2006-03-07 13:08:59 51°19.577 2°39.834 203.6 13.5 206 28.5
2006-03-07 13:09:58 51°19.379 2°39.683 207.5 13.5 208 27
2006-03-07 13:10:58 51°19.186 2°39.496 211.9 13.7 213 26.1
2006-03-07 13:11:59 51°18.992 2°39.298 212.6 13.5 212 25.5
2006-03-07 13:12:59 51°18.802 2°39.101 212.7 14 213 25.3
2006-03-07 13:13:59 51°18.61 2°38.908 213.2 13.6 213 25.6
2006-03-07 13:14:59 51°18.42 2°38.714 211.2 13.8 212 26
2006-03-07 13:15:58 51°18.233 2°38.524 212 13.5 212 26.5
2006-03-07 13:16:59 51°18.042 2°38.323 213.6 13.3 214 26.1
2006-03-07 13:17:58 51°17.856 2°38.129 211.1 13.5 214 26.1
2006-03-07 13:18:58 51°17.668 2°37.926 212 13.8 213 26
2006-03-07 13:19:59 51°17.479 2°37.717 213.1 13.5 214 26.1
2006-03-07 13:20:58 51°17.295 2°37.517 211.9 13.8 215 26.1
2006-03-07 13:21:59 51°17.104 2°37.309 212.7 13.7 215 26.3
2006-03-07 13:22:59 51°16.916 2°37.106 211.5 13.7 213 27.2
2006-03-07 13:23:58 51°16.761 2°36.937 210.8 8.7 215 26
2006-03-07 13:24:58 51°16.681 2°36.847 202.5 4.7 213 25.6
2006-03-07 13:25:58 51°16.651 2°36.797 214.4 1 292 25.9
2006-03-07 13:26:58 51°16.66 2°36.781 243.1 0.7 305 26
2006-03-07 13:27:58 51°16.663 2°36.764 259.3 0.7 280 25.8
2006-03-07 13:28:58 51°16.665 2°36.743 270.7 0.8 284 25.5
2006-03-07 13:29:59 51°16.666 2°36.719 276.5 1 284 25.5
2006-03-07 13:30:58 51°16.668 2°36.693 281.8 1 282 25.5
2006-03-07 13:31:59 51°16.67 2°36.666 284 1.1 270 25.5
2006-03-07 13:32:58 51°16.671 2°36.636 281.9 1.1 268 25.7
2006-03-07 13:33:59 51°16.667 2°36.576 259.2 4.2 255 25.5
2006-03-07 13:34:58 51°16.581 2°36.492 181.2 7.8 184 26.4
2006-03-07 13:35:59 51°16.414 2°36.597 148.2 11.9 152 26.5
2006-03-07 13:36:59 51°16.243 2°36.779 144.4 12.7 146 26.5
2006-03-07 13:37:58 51°16.07 2°36.963 144.5 12.7 146 20.8
2006-03-07 13:38:59 51°15.885 2°37.135 149.1 12.3 151 12.1
2006-03-07 13:39:58 51°15.703 2°37.294 149.9 12.3 152 11.3
2006-03-07 13:40:59 51°15.516 2°37.459 149.6 12.7 151 11
2006-03-07 13:41:58 51°15.337 2°37.618 149.6 12.9 151 10.5
2006-03-07 13:42:59 51°15.15 2°37.779 149.3 12.4 151 9.7
2006-03-07 13:43:59 51°14.964 2°37.941 150 12.9 153 11.3
2006-03-07 13:44:59 51°14.775 2°38.102 150.2 13 152 14.5
2006-03-07 13:45:59 51°14.583 2°38.257 150.3 12.9 153 15.8
2006-03-07 13:46:58 51°14.396 2°38.411 151.1 12.8 152 17.5
2006-03-07 13:47:59 51°14.202 2°38.574 151.3 13 153 15.5
2006-03-07 13:48:58 51°14.009 2°38.706 164.2 12.9 167 11
2006-03-07 13:49:59 51°13.788 2°38.695 188.9 13.1 190 12.7
2006-03-07 13:50:58 51°13.591 2°38.54 205 13.5 203 13.4
2006-03-07 13:51:58 51°13.383 2°38.413 201.7 13.3 202 13.7
2006-03-07 13:52:59 51°13.17 2°38.29 200.2 13.5 200 13.5
2006-03-07 13:53:58 51°12.963 2°38.177 199.6 13.3 198 13.1
2006-03-07 13:54:59 51°12.749 2°38.06 200.5 13.5 199 12.5
2006-03-07 13:55:59 51°12.542 2°37.943 200.4 13.1 199 12.4
2006-03-07 13:56:59 51°12.33 2°37.82 201.9 13.4 201 12.4
2006-03-07 13:57:58 51°12.123 2°37.707 200 13.1 198 12.5
2006-03-07 13:58:58 51°11.912 2°37.591 201.9 13.5 200 13.2
2006-03-07 13:59:58 51°11.7 2°37.479 201.4 13.3 199 13.4
2006-03-07 14:00:59 51°11.485 2°37.363 200.7 13.7 199 13.2
2006-03-07 14:01:59 51°11.277 2°37.242 206.4 13.2 202 12.8
2006-03-07 14:02:58 51°11.073 2°37.114 203.4 13.5 201 11.6
2006-03-07 14:03:59 51°10.863 2°36.985 204.6 13.1 200 10.3
2006-03-07 14:04:58 51°10.662 2°36.861 206.4 13.1 204 8.9
2006-03-07 14:05:58 51°10.458 2°36.783 181.4 12.5 172 9.5
2006-03-07 14:06:58 51°10.339 2°37 98.9 11.4 86 16
2006-03-07 14:07:58 51°10.405 2°37.305 80.7 12.4 76 16.7
2006-03-07 14:08:59 51°10.443 2°37.631 85.3 12.3 79 17.2
2006-03-07 14:09:58 51°10.467 2°37.947 90.7 12.2 85 17.5
2006-03-07 14:10:59 51°10.484 2°38.277 90.7 12.2 85 17.4
2006-03-07 14:11:59 51°10.505 2°38.6 89 12.2 84 16.6
2006-03-07 14:12:59 51°10.547 2°38.918 83 12.3 77 15.9
2006-03-07 14:13:58 51°10.588 2°39.233 83.2 12.4 79 14.9
2006-03-07 14:14:59 51°10.632 2°39.558 83.5 12.4 79 14.5
2006-03-07 14:15:59 51°10.678 2°39.877 80.7 12.3 74 14.1
2006-03-07 14:16:59 51°10.738 2°40.19 79.6 12.4 74 13.5
2006-03-07 14:17:59 51°10.793 2°40.505 79.8 12.4 74 13
2006-03-07 14:18:58 51°10.849 2°40.815 79.5 12.3 74 12.6
2006-03-07 14:19:35 51°13.193 2°56.884 126.5 -999 -999 -999
2006-03-07 14:20:28 51°10.935 2°41.289 79.2 12.4 74 12.1
2006-03-07 14:21:29 51°10.993 2°41.61 78.8 12.1 74 12
2006-03-07 14:22:29 51°11.014 2°41.812 95.5 5.3 89 12.2
2006-03-07 14:23:28 51°11.032 2°41.889 81.8 1.7 65 12.3
2006-03-07 14:24:29 51°11.043 2°41.91 81.6 0.9 46 12.2
2006-03-07 14:25:28 51°11.052 2°41.923 88 0.6 46 12.3
2006-03-07 14:26:28 51°11.059 2°41.931 91.1 0.5 25 12.2
2006-03-07 14:27:28 51°11.066 2°41.936 94.8 0.3 25 12.2
2006-03-07 14:28:28 51°11.072 2°41.937 97.1 0.5 2 12.2
2006-03-07 14:29:28 51°11.079 2°41.938 97.8 0.4 2 12.3
2006-03-07 14:30:29 51°11.088 2°41.937 99 0.6 359 12.2
2006-03-07 14:31:29 51°11.097 2°41.936 96.3 0.5 353 12.2
2006-03-07 14:32:29 51°11.106 2°41.936 96.3 0.6 7 12.2
2006-03-07 14:33:28 51°11.115 2°41.937 95.2 0.6 4 12.3
2006-03-07 14:34:29 51°11.125 2°41.936 91.5 0.6 356 12.3
2006-03-07 14:35:28 51°11.136 2°41.999 88.5 6.1 85 12
2006-03-07 14:36:29 51°11.162 2°42.244 81.3 11.1 76 12.1
2006-03-07 14:37:29 51°11.199 2°42.558 84.9 12.5 81 12.2
2006-03-07 14:38:28 51°11.242 2°42.881 79 12.7 75 12.4
2006-03-07 14:39:28 51°11.292 2°43.207 80.2 12.8 76 12.5
2006-03-07 14:40:28 51°11.35 2°43.531 78.7 12.7 74 12.6
2006-03-07 14:41:28 51°11.407 2°43.853 78.9 12.6 76 12.7
2006-03-07 14:42:28 51°11.459 2°44.178 79.4 12.6 76 12.7
2006-03-07 14:43:29 51°11.516 2°44.505 78.3 12.7 73 12.8
2006-03-07 14:44:28 51°11.577 2°44.818 75.3 12.5 71 12.7
2006-03-07 14:45:29 51°11.643 2°45.142 75.5 12.7 71 12.9
2006-03-07 14:46:29 51°11.717 2°45.457 73.9 12.7 70 12.9
2006-03-07 14:47:28 51°11.788 2°45.768 74.1 12.8 70 12.8
2006-03-07 14:48:29 51°11.862 2°46.09 73.6 12.7 71 12.9
2006-03-07 14:49:28 51°11.933 2°46.402 74 12.7 70 12.9
2006-03-07 14:50:29 51°12.007 2°46.724 73.9 12.8 70 12.9
2006-03-07 14:51:28 51°12.081 2°47.034 71.3 12.8 66 12.7
2006-03-07 14:52:28 51°12.166 2°47.343 72.5 12.8 68 12.8
2006-03-07 14:53:29 51°12.251 2°47.66 72 12.8 68 12.6
2006-03-07 14:54:28 51°12.337 2°47.963 68.2 12.9 64 12.6
2006-03-07 14:55:28 51°12.425 2°48.269 68.6 12.7 63 12.3
2006-03-07 14:56:28 51°12.518 2°48.572 68.2 12.7 64 12.2
2006-03-07 14:57:28 51°12.611 2°48.877 68.8 12.8 65 12.1
2006-03-07 14:58:29 51°12.705 2°49.186 68.4 12.8 64 11.9
2006-03-07 14:59:29 51°12.797 2°49.492 67.5 12.7 64 11.8
2006-03-07 15:00:29 51°12.89 2°49.798 68.9 12.8 65 11.6
2006-03-07 15:01:28 51°12.981 2°50.098 68.2 12.8 64 11.4
2006-03-07 15:02:28 51°13.075 2°50.403 67.7 12.8 64 11.2
2006-03-07 15:03:29 51°13.169 2°50.714 68.1 12.9 63 11.2
2006-03-07 15:04:28 51°13.261 2°51.016 68.2 12.8 64 11
2006-03-07 15:05:28 51°13.353 2°51.323 68.3 12.8 65 10.9
2006-03-07 15:06:28 51°13.446 2°51.63 67.2 12.9 64 10.7
2006-03-07 15:07:28 51°13.543 2°51.936 66.6 12.9 64 10.7
2006-03-07 15:08:29 51°13.64 2°52.249 66.7 12.9 63 10.4
2006-03-07 15:09:28 51°13.737 2°52.549 66.3 13 62 10.3
2006-03-07 15:10:28 51°13.838 2°52.855 66.4 13 62 10.1
2006-03-07 15:11:28 51°13.937 2°53.156 66.7 12.3 63 10
2006-03-07 15:12:28 51°14.018 2°53.413 66.7 8.8 63 9.8
2006-03-07 15:13:28 51°14.071 2°53.572 67.7 5.6 64 9.8
2006-03-07 15:14:28 51°14.108 2°53.685 69.2 4.2 64 9.9
2006-03-07 15:15:28 51°14.136 2°53.767 65.8 3.1 56 9.8
2006-03-07 15:16:28 51°14.166 2°53.822 46.4 2.7 38 9.7
2006-03-07 15:17:28 51°14.219 2°53.87 35.7 5.6 37 9.8
2006-03-07 15:18:29 51°14.298 2°54.058 65.3 10 61 9.8
2006-03-07 15:19:28 51°14.36 2°54.332 79.9 11.8 77 9.9
2006-03-07 15:20:28 51°14.39 2°54.645 90.5 12 86 10.4
2006-03-07 15:21:28 51°14.369 2°54.957 111.1 12 107 9.8
2006-03-07 15:22:29 51°14.278 2°55.229 127.7 10.9 124 -999
2006-03-07 15:23:29 51°14.145 2°55.403 156.6 9.3 152 -999
2006-03-07 15:24:28 51°14.034 2°55.481 158.6 6.3 156 -999
2006-03-07 15:25:29 51°13.946 2°55.547 159.2 5.5 154 11.3
2006-03-07 15:26:29 51°13.863 2°55.608 162.7 5.7 161 -999
2006-03-07 15:27:29 51°13.775 2°55.684 150.5 6.1 146 11.3
2006-03-07 15:28:29 51°13.709 2°55.785 133.7 5.2 131 -999
2006-03-07 15:29:29 51°13.67 2°55.877 126.8 3.7 120 -999
2006-03-07 15:30:29 51°13.64 2°55.953 128.8 3.2 123 -999
2006-03-07 15:31:28 51°13.618 2°56.016 116.1 2.3 108 10.3
2006-03-07 15:32:28 51°13.609 2°56.066 116.4 1.1 113 9.6
2006-03-07 15:33:29 51°13.604 2°56.08 129.9 0.5 124 9.1
2006-03-07 15:34:28 51°13.599 2°56.09 125.5 0.3 106 8.4